Time;durP1;ratioP1;P1;durP2;ratioP2;P2;SDS_P1;SDS_P2;PMS_P1;PMS_P2;Temp;Humidity;BMP_temperature;BMP_pressure;BME280_temperature;BME280_humidity;BME280_pressure;Samples;Min_cycle;Max_cycle;Signal;HPM_P1;HPM_P2
2022/03/24 09:19:12;;;;;;;20.85;12.57;;;8.20;77.70;;;;;;5069536;28;20421;-54
2022/03/24 09:21:38;;;;;;;23.73;12.98;;;8.30;77.00;;;;;;5057098;28;20052;-48
2022/03/24 09:24:05;;;;;;;18.15;12.40;;;8.40;77.30;;;;;;5050086;28;20045;-45
2022/03/24 09:26:32;;;;;;;25.70;14.13;;;8.40;76.00;;;;;;5050224;28;20053;-48
2022/03/24 09:28:59;;;;;;;20.52;13.88;;;8.60;75.70;;;;;;5049739;28;20040;-51
2022/03/24 09:31:26;;;;;;;24.30;15.82;;;8.80;75.20;;;;;;5054478;28;20041;-52
2022/03/24 09:33:52;;;;;;;21.33;14.65;;;9.00;74.70;;;;;;5048375;28;20041;-46
2022/03/24 09:36:19;;;;;;;24.13;15.20;;;9.20;75.00;;;;;;5049239;28;20045;-48
2022/03/24 09:38:46;;;;;;;28.70;16.13;;;9.40;73.80;;;;;;5047811;28;20534;-48
2022/03/24 09:41:14;;;;;;;27.27;16.02;;;9.50;73.90;;;;;;5048961;28;20038;-47
2022/03/24 09:43:41;;;;;;;27.92;16.33;;;9.70;73.90;;;;;;5054749;28;20038;-44
2022/03/24 09:46:08;;;;;;;26.75;16.40;;;9.70;73.80;;;;;;5049408;28;20045;-52
2022/03/24 09:48:35;;;;;;;29.92;17.15;;;9.80;74.00;;;;;;5049226;28;20102;-45
2022/03/24 09:51:02;;;;;;;27.58;16.45;;;9.90;74.00;;;;;;5049502;28;20049;-47
2022/03/24 09:53:29;;;;;;;25.95;17.20;;;10.10;73.70;;;;;;5045992;28;20124;-50
2022/03/24 09:55:55;;;;;;;32.88;18.77;;;10.30;73.40;;;;;;5049608;28;20041;-50
2022/03/24 09:58:22;;;;;;;37.42;19.95;;;10.50;73.30;;;;;;5048887;28;20077;-51
2022/03/24 10:00:49;;;;;;;25.08;16.35;;;10.60;71.00;;;;;;5053985;28;20044;-46
2022/03/24 10:03:16;;;;;;;24.90;16.15;;;10.80;66.90;;;;;;5051256;28;20041;-49
2022/03/24 10:05:43;;;;;;;25.00;14.52;;;10.90;65.50;;;;;;5049467;28;20049;-46
2022/03/24 10:08:09;;;;;;;30.75;15.10;;;11.10;63.50;;;;;;5049260;28;20088;-45
2022/03/24 10:10:37;;;;;;;22.83;15.15;;;11.20;65.50;;;;;;5045709;28;20049;-47
2022/03/24 10:13:04;;;;;;;25.83;17.35;;;11.20;65.60;;;;;;5048790;28;20037;-56
2022/03/24 10:15:31;;;;;;;26.75;16.67;;;11.30;66.00;;;;;;5049194;28;20081;-64
2022/03/24 10:17:58;;;;;;;25.38;15.57;;;11.40;63.90;;;;;;5048515;28;20049;-47
2022/03/24 10:20:24;;;;;;;26.15;18.08;;;11.40;61.90;;;;;;5049130;28;20038;-59
2022/03/24 10:22:51;;;;;;;23.95;15.00;;;11.40;63.60;;;;;;5050927;28;20549;-54
2022/03/24 10:25:18;;;;;;;18.23;11.07;;;11.50;63.60;;;;;;5048944;28;20029;-48
2022/03/24 10:27:45;;;;;;;18.85;12.68;;;11.60;59.10;;;;;;5048894;28;20503;-49
2022/03/24 10:30:11;;;;;;;21.83;12.88;;;11.80;61.00;;;;;;5037625;28;20046;-50
2022/03/24 10:32:38;;;;;;;14.23;8.57;;;11.90;57.20;;;;;;5035540;28;20049;-45
2022/03/24 10:35:05;;;;;;;15.02;10.48;;;12.10;51.30;;;;;;5035307;28;20091;-51
2022/03/24 10:37:32;;;;;;;15.88;10.07;;;12.20;53.10;;;;;;5035404;28;20489;-47
2022/03/24 10:39:59;;;;;;;22.52;11.77;;;12.20;52.60;;;;;;5035258;28;20042;-53
2022/03/24 10:42:26;;;;;;;16.67;10.80;;;12.20;53.20;;;;;;5035368;28;20034;-53
2022/03/24 14:11:07;;;;;;;22.60;13.70;;;15.00;42.20;;;;;;5090256;27;20856;-48
2022/03/24 14:13:34;;;;;;;21.77;14.70;;;15.00;41.60;;;;;;5079825;28;20084;-51
2022/03/24 14:16:01;;;;;;;29.67;18.13;;;15.40;39.80;;;;;;5070323;28;20127;-48
2022/03/24 14:18:28;;;;;;;24.33;14.35;;;15.50;40.20;;;;;;5070445;28;20488;-46
2022/03/24 14:20:55;;;;;;;22.60;14.98;;;15.70;39.80;;;;;;5070226;28;20044;-51
2022/03/24 14:23:21;;;;;;;23.70;15.40;;;15.80;40.00;;;;;;5070253;28;20055;-51
2022/03/24 14:25:48;;;;;;;27.05;15.38;;;15.90;39.70;;;;;;5072589;28;20142;-51
2022/03/24 14:28:15;;;;;;;18.88;15.05;;;15.90;39.10;;;;;;5068863;28;20049;-54
2022/03/24 14:30:41;;;;;;;26.65;15.00;;;15.80;40.00;;;;;;5070215;28;20392;-52
2022/03/24 14:33:09;;;;;;;23.00;15.10;;;15.80;39.00;;;;;;5070059;28;20124;-50
2022/03/24 14:35:36;;;;;;;23.25;15.18;;;15.90;38.90;;;;;;5073207;28;20068;-62
2022/03/24 14:38:03;;;;;;;23.83;15.00;;;16.00;39.30;;;;;;5070043;28;20037;-47
2022/03/24 14:40:29;;;;;;;25.67;15.73;;;16.00;38.90;;;;;;5069775;28;20049;-49
2022/03/24 14:42:56;;;;;;;22.70;15.50;;;16.00;38.60;;;;;;5069731;28;20040;-49
2022/03/24 14:45:24;;;;;;;23.60;15.88;;;16.00;38.10;;;;;;5069755;28;20549;-50
2022/03/24 14:47:56;;;;;;;23.58;15.68;;;16.00;38.70;;;;;;5069942;28;20052;-49
2022/03/24 14:50:22;;;;;;;25.30;16.30;;;16.00;39.30;;;;;;5073010;28;20036;-52
2022/03/24 14:52:49;;;;;;;25.58;16.67;;;16.10;38.20;;;;;;5068570;28;20045;-47
2022/03/24 14:55:16;;;;;;;25.02;15.93;;;16.10;37.90;;;;;;5070702;28;20060;-50
2022/03/24 14:57:43;;;;;;;20.52;15.55;;;16.00;38.80;;;;;;5071347;28;20477;-51
2022/03/24 15:00:10;;;;;;;26.90;16.08;;;16.10;37.80;;;;;;5069619;28;20060;-50
2022/03/24 15:02:38;;;;;;;22.23;14.60;;;16.10;37.90;;;;;;5069236;28;20044;-53
2022/03/24 15:05:08;;;;;;;21.20;14.35;;;16.00;37.50;;;;;;5068573;28;20091;-50
2022/03/24 15:07:35;;;;;;;24.08;14.73;;;16.00;38.10;;;;;;5069341;28;20044;-51
2022/03/24 15:10:04;;;;;;;23.48;14.60;;;15.90;37.90;;;;;;5068879;28;20044;-52
2022/03/24 15:12:31;;;;;;;19.45;14.32;;;15.80;37.70;;;;;;5071022;28;20499;-51
2022/03/24 15:17:43;;;;;;;22.65;14.60;;;16.00;37.40;;;;;;5069866;28;20046;-48
2022/03/24 15:20:10;;;;;;;23.70;14.32;;;16.10;36.40;;;;;;5069329;28;20047;-48
2022/03/24 15:22:36;;;;;;;20.55;14.00;;;16.20;37.40;;;;;;5059676;28;20033;-48
2022/03/24 15:25:03;;;;;;;24.60;15.38;;;16.10;36.90;;;;;;5055407;28;20072;-50
2022/03/24 15:27:30;;;;;;;22.02;14.60;;;16.10;36.70;;;;;;5055494;28;20049;-48
2022/03/24 15:29:56;;;;;;;23.98;14.90;;;16.10;37.10;;;;;;5055337;28;20099;-51
2022/03/24 15:32:23;;;;;;;27.75;13.48;;;16.10;36.10;;;;;;5055561;28;20044;-56
2022/03/24 15:34:50;;;;;;;26.35;13.82;;;16.10;35.90;;;;;;5057079;28;20060;-48
2022/03/24 15:37:17;;;;;;;19.83;14.43;;;16.10;36.10;;;;;;5055202;28;20044;-51
2022/03/24 15:39:44;;;;;;;20.75;13.88;;;16.10;36.80;;;;;;5054811;28;20091;-48
2022/03/24 15:42:11;;;;;;;18.67;14.10;;;16.10;36.60;;;;;;5061426;28;20041;-53
2022/03/24 15:44:38;;;;;;;22.90;14.40;;;16.10;36.20;;;;;;5058112;28;20079;-47
2022/03/24 15:47:05;;;;;;;19.52;13.77;;;16.00;36.20;;;;;;5054949;28;20056;-48
2022/03/24 15:49:32;;;;;;;27.92;13.70;;;16.00;36.30;;;;;;5054189;28;20471;-48
2022/03/24 15:52:00;;;;;;;21.13;13.77;;;15.90;37.30;;;;;;5055108;28;20045;-51
2022/03/24 15:54:27;;;;;;;22.77;13.60;;;15.90;37.20;;;;;;5051749;28;20047;-52
2022/03/24 15:56:54;;;;;;;21.42;13.45;;;16.00;36.80;;;;;;5054674;28;20396;-50
2022/03/24 15:59:21;;;;;;;19.33;13.95;;;16.00;36.60;;;;;;5054555;28;20045;-51
2022/03/24 16:01:47;;;;;;;23.67;14.05;;;16.00;36.20;;;;;;5060647;28;20499;-50
2022/03/24 16:04:16;;;;;;;24.63;14.55;;;16.00;37.00;;;;;;5060356;28;20049;-50
2022/03/24 16:06:43;;;;;;;21.52;14.40;;;16.10;36.30;;;;;;5054693;28;20047;-51
2022/03/24 16:09:09;;;;;;;22.45;13.75;;;16.00;36.40;;;;;;5054256;28;20045;-52
2022/03/24 16:11:36;;;;;;;23.20;13.95;;;15.90;37.00;;;;;;5060516;28;20067;-48
2022/03/24 16:14:03;;;;;;;22.33;14.00;;;15.90;36.70;;;;;;5054615;28;20091;-52
2022/03/24 16:16:30;;;;;;;22.55;14.13;;;15.80;37.00;;;;;;5054561;28;20045;-52
2022/03/24 16:18:57;;;;;;;21.30;14.05;;;15.90;36.50;;;;;;5054470;28;20052;-53
2022/03/24 16:21:24;;;;;;;21.63;15.07;;;15.90;36.30;;;;;;5054356;28;20044;-48
2022/03/24 16:23:51;;;;;;;23.08;14.07;;;15.90;36.80;;;;;;5057534;28;20045;-54
2022/03/24 16:26:17;;;;;;;27.65;15.48;;;15.90;37.00;;;;;;5055111;28;20048;-49
2022/03/24 16:28:44;;;;;;;22.92;13.32;;;15.90;36.90;;;;;;5054728;28;20071;-50
2022/03/24 16:31:11;;;;;;;21.15;13.73;;;15.90;37.60;;;;;;5056231;28;20049;-48
2022/03/24 16:33:38;;;;;;;22.45;13.38;;;15.80;37.10;;;;;;5054250;28;20048;-52
2022/03/24 16:36:05;;;;;;;23.35;13.13;;;15.90;37.30;;;;;;5054048;28;20043;-49
2022/03/24 16:38:32;;;;;;;20.23;13.48;;;15.80;37.20;;;;;;5054082;28;20044;-51
2022/03/24 16:40:59;;;;;;;20.05;12.55;;;15.80;36.10;;;;;;5058148;28;20055;-50
2022/03/24 16:43:26;;;;;;;18.85;12.75;;;15.80;36.90;;;;;;5055348;28;20128;-50
2022/03/24 16:45:53;;;;;;;25.80;13.57;;;15.80;36.20;;;;;;5057643;28;20045;-52
2022/03/24 16:48:20;;;;;;;20.17;14.15;;;15.80;36.70;;;;;;5052553;28;20132;-49
2022/03/24 16:50:46;;;;;;;19.55;13.63;;;15.80;36.80;;;;;;5053548;28;20047;-50
2022/03/24 16:53:13;;;;;;;21.95;14.50;;;15.80;37.50;;;;;;5054491;28;20040;-48
2022/03/24 16:55:40;;;;;;;20.00;14.18;;;15.80;37.00;;;;;;5053658;28;20045;-52
2022/03/24 16:58:06;;;;;;;26.40;14.18;;;16.00;35.80;;;;;;5053517;28;20120;-51
2022/03/24 17:00:33;;;;;;;18.70;14.18;;;16.20;36.20;;;;;;5053483;28;20049;-49
2022/03/24 17:03:03;;;;;;;18.80;13.48;;;16.30;35.30;;;;;;5053851;28;20044;-51
2022/03/24 17:05:31;;;;;;;17.15;12.02;;;16.50;34.80;;;;;;5058476;28;20036;-54
2022/03/24 17:07:58;;;;;;;23.10;13.35;;;16.60;35.90;;;;;;5053596;28;20072;-53
2022/03/24 17:10:26;;;;;;;21.42;13.43;;;16.70;35.60;;;;;;5053077;28;20064;-50
2022/03/24 17:12:52;;;;;;;18.42;13.32;;;16.70;35.10;;;;;;5056313;28;20040;-55
2022/03/24 17:15:19;;;;;;;24.70;13.98;;;16.70;35.30;;;;;;5053277;28;20051;-55
2022/03/24 17:17:46;;;;;;;20.85;12.85;;;16.60;35.70;;;;;;5053396;28;20535;-50
2022/03/24 17:20:14;;;;;;;25.27;13.77;;;16.50;35.40;;;;;;5057265;28;20431;-52
2022/03/24 17:22:41;;;;;;;26.38;15.55;;;16.50;35.40;;;;;;5053417;28;20106;-53
2022/03/24 17:25:08;;;;;;;27.05;16.65;;;16.40;37.20;;;;;;5053216;28;20060;-55
2022/03/24 17:27:35;;;;;;;21.42;14.48;;;16.40;38.20;;;;;;5052191;28;20412;-49
2022/03/24 17:30:02;;;;;;;28.75;15.00;;;16.30;38.00;;;;;;5053354;28;20041;-54
2022/03/24 17:32:33;;;;;;;25.67;16.88;;;16.20;38.60;;;;;;5053148;28;20049;-54
2022/03/24 17:35:00;;;;;;;27.52;16.13;;;16.10;39.60;;;;;;5053350;28;20068;-50
2022/03/24 17:37:26;;;;;;;26.23;18.42;;;16.00;40.30;;;;;;5053442;28;20045;-52
2022/03/24 17:39:53;;;;;;;29.90;20.30;;;15.90;41.30;;;;;;5053042;28;20045;-48
2022/03/24 17:42:21;;;;;;;29.38;19.13;;;15.90;42.10;;;;;;5051429;28;20044;-50
2022/03/24 17:44:47;;;;;;;30.60;20.13;;;15.80;42.90;;;;;;5050786;28;20076;-53
2022/03/24 17:47:14;;;;;;;31.67;21.92;;;15.70;43.50;;;;;;5051048;28;20506;-53
2022/03/24 17:49:41;;;;;;;29.60;20.92;;;15.60;44.40;;;;;;5051952;28;20166;-53
2022/03/24 17:52:08;;;;;;;33.65;21.08;;;15.40;45.00;;;;;;5051857;28;20510;-51
2022/03/24 17:54:34;;;;;;;34.58;21.65;;;15.30;45.70;;;;;;5051730;28;20470;-53
2022/03/24 17:57:01;;;;;;;33.97;22.35;;;15.10;46.30;;;;;;5052536;28;20037;-49
2022/03/24 17:59:28;;;;;;;37.72;22.73;;;15.00;46.90;;;;;;5052925;28;20045;-52
2022/03/24 18:01:55;;;;;;;36.55;23.92;;;14.90;47.50;;;;;;5052722;28;20041;-52
2022/03/24 18:04:22;;;;;;;33.30;23.05;;;14.80;48.10;;;;;;5046657;28;20057;-48
2022/03/24 18:06:48;;;;;;;37.22;23.75;;;14.60;48.50;;;;;;5046285;28;20458;-48
2022/03/24 18:09:15;;;;;;;35.17;23.90;;;14.50;48.90;;;;;;5046095;28;20140;-50
2022/03/24 18:11:42;;;;;;;40.33;24.50;;;14.40;49.40;;;;;;5056913;28;20053;-50
2022/03/24 18:14:08;;;;;;;38.70;25.38;;;14.30;49.50;;;;;;5052975;28;20461;-53
2022/03/24 18:16:36;;;;;;;40.72;26.55;;;14.20;50.00;;;;;;5052970;28;20125;-52
2022/03/24 18:19:03;;;;;;;39.50;26.77;;;14.10;50.30;;;;;;5052726;28;20476;-54
2022/03/24 18:21:50;;;;;;;41.33;25.95;;;14.00;50.80;;;;;;5052756;28;20056;-50
2022/03/24 18:24:22;;;;;;;41.33;26.13;;;14.00;51.40;;;;;;5052834;28;20041;-49
2022/03/24 18:26:51;;;;;;;39.05;26.20;;;13.90;52.00;;;;;;5053009;28;20083;-52
2022/03/24 18:29:17;;;;;;;36.30;25.95;;;13.70;53.00;;;;;;5052772;28;20484;-46
2022/03/24 18:31:44;;;;;;;48.60;30.33;;;13.70;53.80;;;;;;5052805;28;20095;-49
2022/03/24 18:34:11;;;;;;;54.80;35.08;;;13.60;56.70;;;;;;5052689;28;20053;-49
2022/03/24 18:36:38;;;;;;;64.72;39.50;;;13.50;59.00;;;;;;5052836;28;20037;-49
2022/03/24 18:39:05;;;;;;;70.28;42.92;;;13.40;62.50;;;;;;5052509;28;20037;-48
2022/03/24 18:41:32;;;;;;;69.43;45.92;;;13.40;65.10;;;;;;5053457;28;20044;-48
2022/03/24 18:43:58;;;;;;;77.97;48.20;;;13.20;67.40;;;;;;5052696;28;20075;-49
2022/03/24 18:46:25;;;;;;;73.50;48.90;;;13.20;68.70;;;;;;5052579;28;20056;-45
2022/03/24 18:48:52;;;;;;;77.72;49.53;;;13.10;69.70;;;;;;5052517;28;20161;-47
2022/03/24 18:51:19;;;;;;;81.55;51.67;;;13.00;69.80;;;;;;5052656;28;20045;-49
2022/03/24 18:53:45;;;;;;;85.78;54.53;;;12.90;70.60;;;;;;5052642;28;20057;-52
2022/03/24 18:56:12;;;;;;;88.90;54.50;;;12.80;71.10;;;;;;5053495;28;20061;-49
2022/03/24 18:58:39;;;;;;;84.75;54.63;;;12.70;71.60;;;;;;5056266;28;20508;-55
2022/03/24 19:01:06;;;;;;;85.65;54.90;;;12.70;72.40;;;;;;5056037;28;20037;-51
2022/03/24 19:03:33;;;;;;;86.93;55.05;;;12.60;73.00;;;;;;5056366;28;20041;-51
2022/03/24 19:06:00;;;;;;;87.40;54.83;;;12.50;72.90;;;;;;5056302;28;20076;-53
2022/03/24 19:08:27;;;;;;;94.88;57.38;;;12.40;73.20;;;;;;5056094;28;20041;-55
2022/03/24 19:10:55;;;;;;;90.32;56.90;;;12.40;73.60;;;;;;5059503;28;20053;-51
2022/03/24 19:13:22;;;;;;;90.78;57.13;;;12.30;74.00;;;;;;5056255;28;20041;-54
2022/03/24 19:15:49;;;;;;;92.25;57.17;;;12.30;74.60;;;;;;5055868;28;20033;-51
2022/03/24 19:18:16;;;;;;;86.47;57.47;;;12.20;75.40;;;;;;5055956;28;20041;-49
2022/03/24 19:20:43;;;;;;;92.63;58.40;;;12.10;75.60;;;;;;5055712;28;20127;-53
2022/03/24 19:23:12;;;;;;;90.28;58.28;;;12.10;76.00;;;;;;5056121;28;20063;-50
2022/03/24 19:25:38;;;;;;;97.57;60.47;;;12.00;76.10;;;;;;5054780;28;20055;-52
2022/03/24 19:28:06;;;;;;;94.38;60.42;;;11.90;76.40;;;;;;5055778;28;20064;-50
2022/03/24 19:30:34;;;;;;;93.50;60.10;;;11.90;77.10;;;;;;5054310;28;20040;-52
2022/03/24 19:33:02;;;;;;;96.75;61.78;;;11.80;77.40;;;;;;5055932;28;20045;-50
2022/03/24 19:35:29;;;;;;;94.90;60.85;;;11.70;77.70;;;;;;5055800;28;20033;-51
2022/03/24 19:37:55;;;;;;;95.97;61.53;;;11.70;78.10;;;;;;5055679;28;20073;-54
2022/03/24 19:40:25;;;;;;;104.10;61.30;;;11.60;78.30;;;;;;5055693;28;20033;-46
2022/03/24 19:42:52;;;;;;;99.07;62.00;;;11.60;78.50;;;;;;5054142;28;20135;-51
2022/03/24 19:45:22;;;;;;;97.13;63.35;;;11.50;78.50;;;;;;5055477;28;20076;-52
2022/03/24 19:47:49;;;;;;;99.97;63.38;;;11.40;78.70;;;;;;5055712;28;20069;-56
2022/03/24 19:50:21;;;;;;;99.28;63.38;;;11.30;79.10;;;;;;5054173;28;20071;-52
2022/03/24 19:52:48;;;;;;;103.07;65.82;;;11.30;79.00;;;;;;5055303;28;20041;-52
2022/03/24 19:55:16;;;;;;;101.95;63.63;;;11.30;79.40;;;;;;5055141;28;20041;-55
2022/03/24 19:57:45;;;;;;;98.75;64.38;;;11.20;79.50;;;;;;5055318;28;20041;-51
2022/03/24 20:00:11;;;;;;;98.38;63.20;;;11.20;79.50;;;;;;5053770;28;20041;-48
2022/03/24 20:02:38;;;;;;;101.03;63.85;;;11.10;79.90;;;;;;5055168;28;20041;-54
2022/03/24 20:05:05;;;;;;;100.90;65.18;;;11.10;80.00;;;;;;5054956;28;20037;-54
2022/03/24 20:07:37;;;;;;;102.45;62.45;;;11.00;80.50;;;;;;5055574;28;20112;-53
2022/03/24 20:10:04;;;;;;;99.72;63.30;;;11.00;80.60;;;;;;5054556;28;20041;-49
2022/03/24 20:12:31;;;;;;;104.30;66.25;;;10.90;81.00;;;;;;5056871;28;20053;-53
2022/03/24 20:14:58;;;;;;;105.05;65.25;;;10.90;80.80;;;;;;5053613;28;20056;-55
2022/03/24 20:17:25;;;;;;;109.13;64.40;;;10.80;81.20;;;;;;5054851;28;20067;-52
2022/03/24 20:19:52;;;;;;;103.97;65.28;;;10.80;81.10;;;;;;5053510;28;20484;-48
2022/03/24 20:22:39;;;;;;;103.53;65.80;;;10.80;81.20;;;;;;5054767;28;20114;-50
2022/03/24 20:25:06;;;;;;;106.70;67.78;;;10.70;81.70;;;;;;5054712;28;20098;-54
2022/03/24 20:27:33;;;;;;;101.53;67.53;;;10.70;81.60;;;;;;5054583;28;20072;-51
2022/03/24 20:29:59;;;;;;;100.60;65.72;;;10.70;81.70;;;;;;5054482;28;20064;-50
2022/03/24 20:32:26;;;;;;;104.07;67.03;;;10.60;82.10;;;;;;5054618;28;20041;-50
2022/03/24 20:34:53;;;;;;;103.22;65.68;;;10.50;82.00;;;;;;5054267;28;20053;-52
2022/03/24 20:37:20;;;;;;;98.93;65.65;;;10.60;82.70;;;;;;5054688;28;20496;-55
2022/03/24 20:39:49;;;;;;;108.25;67.43;;;10.50;82.10;;;;;;5054703;28;20091;-48
2022/03/24 20:42:15;;;;;;;103.78;65.28;;;10.50;82.20;;;;;;5059069;28;20129;-54
2022/03/24 20:44:42;;;;;;;106.15;66.70;;;10.40;82.40;;;;;;5054382;28;20040;-47
2022/03/24 20:47:09;;;;;;;105.93;66.05;;;10.40;82.50;;;;;;5054370;28;20116;-56
2022/03/24 20:49:36;;;;;;;111.88;72.45;;;10.40;82.40;;;;;;5054175;28;20040;-51
2022/03/24 20:52:03;;;;;;;107.90;72.82;;;10.30;82.80;;;;;;5054248;28;20051;-51
2022/03/24 20:54:30;;;;;;;98.07;67.43;;;10.30;83.10;;;;;;5054202;28;20037;-58
2022/03/24 20:56:57;;;;;;;106.50;68.25;;;10.30;83.10;;;;;;5054185;28;20053;-48
2022/03/24 20:59:24;;;;;;;98.97;67.68;;;10.20;83.10;;;;;;5052776;28;20068;-48
2022/03/24 21:01:51;;;;;;;101.97;68.25;;;10.20;83.70;;;;;;5053983;28;20063;-56
2022/03/24 21:04:18;;;;;;;103.68;66.20;;;10.20;83.60;;;;;;5052633;28;20052;-46
2022/03/24 21:06:45;;;;;;;100.78;65.88;;;10.10;83.50;;;;;;5053798;28;20044;-49
2022/03/24 21:09:13;;;;;;;99.47;66.78;;;10.10;84.30;;;;;;5053783;28;20049;-54
2022/03/24 21:11:41;;;;;;;103.30;66.53;;;10.00;84.40;;;;;;5054074;28;20041;-53
2022/03/24 21:14:08;;;;;;;106.60;69.20;;;10.00;84.60;;;;;;5053933;28;20079;-51
2022/03/24 21:16:35;;;;;;;102.53;65.15;;;9.90;85.20;;;;;;5053906;28;20049;-52
2022/03/24 21:19:02;;;;;;;98.05;64.97;;;9.90;84.40;;;;;;5053222;28;20102;-51
2022/03/24 21:21:29;;;;;;;100.63;66.75;;;9.90;84.70;;;;;;5053790;28;20051;-52
2022/03/24 21:23:56;;;;;;;100.22;66.40;;;9.90;85.00;;;;;;5053628;28;20075;-53
2022/03/24 21:26:22;;;;;;;102.10;67.13;;;9.80;85.00;;;;;;5053590;28;20076;-51
2022/03/24 21:28:49;;;;;;;103.72;68.07;;;9.80;85.20;;;;;;5053620;28;20041;-56
2022/03/24 21:31:16;;;;;;;96.35;65.65;;;9.70;85.10;;;;;;5053274;28;20037;-50
2022/03/24 21:33:43;;;;;;;99.63;66.57;;;9.70;85.50;;;;;;5053514;28;20037;-52
2022/03/24 21:36:10;;;;;;;102.68;66.85;;;9.70;85.50;;;;;;5053447;28;20033;-53
2022/03/24 21:38:38;;;;;;;95.30;64.00;;;9.60;85.70;;;;;;5053441;28;20106;-52
2022/03/24 21:41:05;;;;;;;107.57;66.50;;;9.60;86.20;;;;;;5054729;28;20033;-47
2022/03/24 21:43:32;;;;;;;102.25;65.85;;;9.50;86.50;;;;;;5054347;28;20080;-47
2022/03/24 21:45:59;;;;;;;101.30;65.25;;;9.50;86.50;;;;;;5035392;28;20067;-47
2022/03/24 21:48:26;;;;;;;98.05;67.10;;;9.50;86.60;;;;;;5053310;28;20087;-50
2022/03/24 21:50:52;;;;;;;103.18;66.72;;;9.40;86.70;;;;;;5052986;28;20063;-52
2022/03/24 21:53:19;;;;;;;97.40;65.35;;;9.40;86.90;;;;;;5051893;28;20048;-55
2022/03/24 21:55:46;;;;;;;107.32;67.90;;;9.40;87.30;;;;;;5053035;28;20044;-48
2022/03/24 21:58:15;;;;;;;104.75;64.88;;;9.30;87.20;;;;;;5051827;28;20448;-51
2022/03/24 22:00:43;;;;;;;99.30;67.07;;;9.30;87.50;;;;;;5052914;28;20467;-49
2022/03/24 22:03:10;;;;;;;103.63;67.78;;;9.20;87.20;;;;;;5052974;28;20484;-48
2022/03/24 22:05:37;;;;;;;103.13;66.47;;;9.20;87.80;;;;;;5052962;28;20048;-49
2022/03/24 22:08:06;;;;;;;106.32;67.72;;;9.10;88.10;;;;;;5051912;28;20045;-56
2022/03/24 22:10:34;;;;;;;99.68;66.10;;;9.10;88.10;;;;;;5053947;28;20049;-49
2022/03/24 22:13:03;;;;;;;102.32;68.20;;;9.10;88.60;;;;;;5052810;28;20045;-54
2022/03/24 22:15:29;;;;;;;108.25;67.00;;;9.00;88.50;;;;;;5052985;28;20043;-50
2022/03/24 22:17:56;;;;;;;104.50;67.47;;;9.00;88.90;;;;;;5052905;28;20037;-49
2022/03/24 22:20:23;;;;;;;102.03;68.72;;;8.90;89.00;;;;;;5052726;28;20048;-49
2022/03/24 22:22:50;;;;;;;107.60;66.88;;;8.90;89.20;;;;;;5052833;28;20045;-51
2022/03/24 22:25:17;;;;;;;104.53;67.28;;;8.80;89.30;;;;;;5052768;28;20044;-49
2022/03/24 22:27:44;;;;;;;101.65;66.03;;;8.80;89.70;;;;;;5052668;28;20163;-53
2022/03/24 22:30:11;;;;;;;103.05;64.35;;;8.80;89.50;;;;;;5052644;28;20045;-51
2022/03/24 22:32:37;;;;;;;98.80;66.22;;;8.80;89.70;;;;;;5056092;28;20465;-49
2022/03/24 22:35:04;;;;;;;97.78;64.40;;;8.70;89.90;;;;;;5056710;28;20040;-49
2022/03/24 22:37:32;;;;;;;102.07;64.47;;;8.70;89.90;;;;;;5056612;28;20451;-49
2022/03/24 22:39:59;;;;;;;98.45;65.05;;;8.70;90.10;;;;;;5059783;28;20044;-47
2022/03/24 22:42:26;;;;;;;99.72;64.32;;;8.60;90.00;;;;;;5056342;28;20053;-50
2022/03/24 22:44:53;;;;;;;105.22;64.43;;;8.60;90.10;;;;;;5058595;28;20033;-48
2022/03/24 22:47:20;;;;;;;103.28;66.20;;;8.60;90.30;;;;;;5061916;28;20036;-46
2022/03/24 22:49:47;;;;;;;100.25;65.22;;;8.50;90.30;;;;;;5060405;28;20052;-45
2022/03/24 22:52:13;;;;;;;108.75;66.00;;;8.50;90.40;;;;;;5056104;28;20453;-51
2022/03/24 22:54:40;;;;;;;104.45;64.75;;;8.50;90.50;;;;;;5056392;28;20435;-46
2022/03/24 22:57:07;;;;;;;101.00;64.80;;;8.40;90.60;;;;;;5056381;28;20045;-43
2022/03/24 22:59:34;;;;;;;103.53;66.57;;;8.40;90.60;;;;;;5056445;28;20136;-50
2022/03/24 23:02:01;;;;;;;99.82;66.40;;;8.30;90.70;;;;;;5056231;28;20051;-48
2022/03/24 23:04:28;;;;;;;107.10;67.53;;;8.30;90.70;;;;;;5051948;28;20055;-48
2022/03/24 23:06:55;;;;;;;103.13;64.88;;;8.30;90.80;;;;;;5055960;28;20040;-52
2022/03/24 23:09:25;;;;;;;103.75;65.63;;;8.30;90.90;;;;;;5054195;28;20120;-51
2022/03/24 23:11:52;;;;;;;107.38;66.85;;;8.30;90.80;;;;;;5055681;28;20080;-51
2022/03/24 23:14:19;;;;;;;102.00;65.72;;;8.20;90.90;;;;;;5055101;28;20031;-47
2022/03/24 23:16:45;;;;;;;103.43;65.22;;;8.20;90.90;;;;;;5055361;28;20072;-48
2022/03/24 23:19:12;;;;;;;103.30;68.20;;;8.20;91.00;;;;;;5054983;28;20044;-51
2022/03/24 23:21:39;;;;;;;108.43;67.82;;;8.20;91.10;;;;;;5055066;28;20083;-50
2022/03/24 23:24:06;;;;;;;110.07;68.03;;;8.10;91.20;;;;;;5053714;28;20439;-50
2022/03/24 23:26:33;;;;;;;106.07;66.53;;;8.10;91.30;;;;;;5055276;28;20041;-50
2022/03/24 23:28:59;;;;;;;108.07;66.93;;;8.10;91.40;;;;;;5055488;28;20491;-46
2022/03/24 23:31:26;;;;;;;104.28;67.97;;;8.00;91.50;;;;;;5055324;28;20459;-46
2022/03/24 23:33:53;;;;;;;99.53;63.63;;;8.00;91.60;;;;;;5055271;28;20128;-48
2022/03/24 23:36:20;;;;;;;105.93;66.05;;;8.00;91.80;;;;;;5055277;28;20108;-50
2022/03/24 23:38:47;;;;;;;102.63;65.72;;;7.90;92.00;;;;;;5055207;28;20099;-49
2022/03/24 23:41:13;;;;;;;107.10;67.55;;;7.90;91.90;;;;;;5055375;28;20033;-48
2022/03/24 23:43:40;;;;;;;106.45;67.97;;;7.90;92.10;;;;;;5054710;28;20049;-52
2022/03/24 23:46:07;;;;;;;102.20;67.53;;;7.90;92.10;;;;;;5055129;28;20068;-49
2022/03/24 23:48:34;;;;;;;108.53;67.65;;;7.90;92.10;;;;;;5055097;28;20071;-48
2022/03/24 23:51:00;;;;;;;114.90;68.57;;;7.90;92.20;;;;;;5054910;28;20072;-46
2022/03/24 23:53:27;;;;;;;113.25;69.75;;;7.80;92.40;;;;;;5055064;28;20361;-49
2022/03/24 23:55:54;;;;;;;109.80;70.18;;;7.80;92.40;;;;;;5055098;28;20415;-49
